Terminal Aerodrome Forecast
Issued by NWS Sterling, VA

Home | Current Version | Previous Version | Text Only | Print | Product List | Glossary On
Versions: 1 2 3 4 5 6 7 8 9 10 11 12 13 14 15 16 17 18 19 20 21 22 23 24 25 26 27 28 29
000
FTUS41 KLWX 201700 RRA
TAFIAD
TAF
KIAD 201744Z 2018/2124 19010G18KT P6SM FEW200
     FM202300 19006KT P6SM OVC100
     FM210600 00000KT P6SM BKN060
     FM211300 28005KT P6SM BKN050=

USA.gov is the U.S. government's official web portal to all federal, state and local government web resources and services.